createdAt,value
2016-09-16T00:00:03.036Z,20.05
2016-09-16T00:00:24.760Z,20.01
2016-09-16T00:00:51.257Z,20.12
2016-09-16T00:01:13.004Z,20.32
2016-09-16T00:01:34.735Z,20.34
2016-09-16T00:01:56.458Z,20.35
2016-09-16T00:02:18.169Z,20.34
2016-09-16T00:02:39.909Z,20.31
2016-09-16T00:03:01.631Z,20.27
2016-09-16T00:03:23.401Z,20.11
2016-09-16T00:03:45.136Z,20.05
2016-09-16T00:04:06.857Z,20.08
2016-09-16T00:04:29.579Z,20.32
2016-09-16T00:04:51.314Z,20.32
2016-09-16T00:05:13.040Z,20.35
2016-09-16T00:05:34.761Z,20.36
2016-09-16T00:06:22.982Z,19.86
2016-09-16T00:06:44.713Z,19.88
2016-09-16T00:07:06.431Z,19.99
2016-09-16T00:07:28.156Z,19.96
2016-09-16T00:07:49.900Z,19.87
2016-09-16T00:08:11.625Z,19.79
2016-09-16T00:08:33.359Z,19.70
2016-09-16T00:08:55.078Z,19.74
2016-09-16T00:09:16.802Z,19.76
2016-09-16T00:09:38.524Z,19.73
2016-09-16T00:10:00.264Z,19.64
2016-09-16T00:10:21.995Z,19.55
2016-09-16T00:10:43.715Z,19.61
2016-09-16T00:11:05.452Z,19.67
2016-09-16T00:11:27.171Z,19.65
2016-09-16T00:11:48.905Z,19.54
2016-09-16T00:12:10.648Z,19.57
2016-09-16T00:12:32.373Z,19.65
2016-09-16T00:12:54.098Z,19.76
2016-09-16T00:13:15.833Z,19.76
2016-09-16T00:13:37.564Z,19.81
2016-09-16T00:13:59.289Z,19.96
2016-09-16T00:14:21.030Z,20.11
2016-09-16T00:14:42.755Z,20.03
2016-09-16T00:15:04.489Z,19.85
2016-09-16T00:15:26.217Z,19.97
2016-09-16T00:15:48.940Z,20.06
2016-09-16T00:16:10.658Z,20.14
2016-09-16T00:16:32.437Z,19.93
2016-09-16T00:16:54.169Z,19.77
2016-09-16T00:17:15.919Z,19.98
2016-09-16T00:17:37.644Z,19.87
2016-09-16T00:17:59.378Z,19.80
2016-09-16T00:18:21.193Z,19.72
2016-09-16T00:18:42.937Z,19.58
2016-09-16T00:19:04.646Z,19.62
2016-09-16T00:19:52.902Z,19.68
2016-09-16T00:20:14.623Z,19.52
2016-09-16T00:20:36.355Z,19.54
2016-09-16T00:20:58.083Z,19.55
2016-09-16T00:21:24.595Z,19.61
2016-09-16T00:21:51.094Z,19.61
2016-09-16T00:22:17.590Z,19.69
2016-09-16T00:22:39.315Z,19.68
2016-09-16T00:23:01.043Z,19.71
2016-09-16T00:23:22.796Z,19.83
2016-09-16T00:23:44.565Z,19.81
2016-09-16T00:24:06.288Z,19.67
2016-09-16T00:24:28.009Z,19.77
2016-09-16T00:24:49.794Z,19.77
2016-09-16T00:25:11.517Z,19.74
2016-09-16T00:25:38.005Z,19.89
2016-09-16T00:25:59.737Z,19.96
2016-09-16T00:26:21.475Z,20.00
2016-09-16T00:26:43.224Z,20.19
2016-09-16T00:27:05.017Z,20.21
2016-09-16T00:27:26.738Z,20.25
2016-09-16T00:27:48.550Z,20.13
2016-09-16T00:28:10.361Z,19.94
2016-09-16T00:28:32.080Z,19.85
2016-09-16T00:28:56.704Z,19.85
2016-09-16T00:29:18.432Z,19.76
2016-09-16T00:29:40.144Z,19.81
2016-09-16T00:30:01.872Z,19.88
2016-09-16T00:30:23.606Z,19.99
2016-09-16T00:30:45.331Z,19.93
2016-09-16T00:31:07.052Z,20.01
2016-09-16T00:31:28.800Z,20.07
2016-09-16T00:31:50.553Z,19.85
2016-09-16T00:32:12.275Z,19.84
2016-09-16T00:32:33.991Z,19.67
2016-09-16T00:32:55.852Z,19.80
2016-09-16T00:33:17.587Z,19.67
2016-09-16T00:33:39.309Z,19.76
2016-09-16T00:34:01.033Z,19.84
2016-09-16T00:34:22.755Z,19.98
2016-09-16T00:34:44.466Z,19.85
2016-09-16T00:35:06.214Z,19.64
2016-09-16T00:35:27.945Z,19.47
2016-09-16T00:35:49.674Z,19.45
2016-09-16T00:36:11.394Z,19.43
2016-09-16T00:36:33.286Z,19.47
2016-09-16T00:36:55.040Z,19.45
2016-09-16T00:37:16.768Z,19.52
2016-09-16T00:37:38.493Z,19.51
2016-09-16T00:38:00.214Z,19.48
2016-09-16T00:38:22.937Z,19.63
2016-09-16T00:38:44.703Z,19.81
2016-09-16T00:39:06.428Z,19.68
2016-09-16T00:39:28.150Z,19.64
2016-09-16T00:39:51.878Z,19.48
2016-09-16T00:40:13.612Z,19.37
2016-09-16T00:40:35.353Z,19.38
2016-09-16T00:40:57.090Z,19.46
2016-09-16T00:41:18.810Z,19.68
2016-09-16T00:41:40.540Z,19.83
2016-09-16T00:42:28.743Z,19.96
2016-09-16T00:42:50.557Z,19.88
2016-09-16T00:43:12.290Z,19.85
2016-09-16T00:43:34.019Z,19.62
2016-09-16T00:43:55.737Z,19.56
2016-09-16T00:44:17.458Z,19.78
2016-09-16T00:44:39.187Z,19.76
2016-09-16T00:45:00.909Z,19.56
2016-09-16T00:45:22.636Z,19.56
2016-09-16T00:45:44.358Z,19.51
2016-09-16T00:46:07.122Z,19.57
2016-09-16T00:46:28.848Z,19.65
2016-09-16T00:46:50.573Z,19.57
2016-09-16T00:47:17.226Z,19.41
2016-09-16T00:47:38.957Z,19.38
2016-09-16T00:48:00.694Z,19.38
2016-09-16T00:48:22.413Z,19.46
2016-09-16T00:48:53.687Z,19.49
2016-09-16T00:49:20.169Z,19.66
2016-09-16T00:49:41.904Z,19.74
2016-09-16T00:50:03.631Z,19.86
2016-09-16T00:50:25.354Z,19.88
2016-09-16T00:50:47.088Z,19.75
2016-09-16T00:51:08.797Z,19.66
2016-09-16T00:51:30.532Z,19.59
2016-09-16T00:51:57.020Z,19.68
2016-09-16T00:52:18.749Z,19.85
2016-09-16T00:52:40.471Z,19.83
2016-09-16T00:53:03.204Z,19.75
2016-09-16T00:53:24.925Z,19.53
2016-09-16T00:53:46.645Z,19.52
2016-09-16T00:54:08.371Z,19.68
2016-09-16T00:54:30.090Z,19.65
2016-09-16T00:54:51.821Z,19.70
2016-09-16T00:55:13.561Z,19.74
2016-09-16T00:55:35.280Z,19.77
2016-09-16T00:56:01.773Z,19.59
2016-09-16T00:56:23.500Z,19.35
2016-09-16T00:56:45.210Z,19.36
2016-09-16T00:57:06.931Z,19.37
2016-09-16T00:57:28.857Z,19.53
2016-09-16T00:57:50.583Z,19.49
2016-09-16T00:58:12.324Z,19.46
2016-09-16T00:58:34.064Z,19.38
2016-09-16T00:58:55.811Z,19.44
2016-09-16T00:59:17.539Z,19.37
2016-09-16T00:59:39.273Z,19.27
2016-09-16T01:00:01.028Z,19.23
2016-09-16T01:00:22.744Z,19.39
2016-09-16T01:00:44.464Z,19.55
2016-09-16T01:01:06.198Z,19.71
2016-09-16T01:01:27.930Z,19.78
2016-09-16T01:01:49.666Z,19.76
2016-09-16T01:02:11.399Z,19.65
2016-09-16T01:02:33.137Z,19.68
2016-09-16T01:03:02.419Z,19.85
2016-09-16T01:03:24.154Z,19.84
2016-09-16T01:03:45.881Z,19.65
2016-09-16T01:04:07.607Z,19.61
2016-09-16T01:04:29.325Z,19.59
2016-09-16T01:04:52.054Z,19.60
2016-09-16T01:05:13.785Z,19.51
2016-09-16T01:05:35.513Z,19.52
2016-09-16T01:05:57.245Z,19.55
2016-09-16T01:06:18.967Z,19.66
2016-09-16T01:06:40.695Z,19.76
2016-09-16T01:07:02.416Z,19.68
2016-09-16T01:07:24.135Z,19.63
2016-09-16T01:07:45.882Z,19.65
2016-09-16T01:08:07.614Z,19.62
2016-09-16T01:08:29.351Z,19.59
2016-09-16T01:08:51.081Z,19.72
2016-09-16T01:09:12.803Z,19.78
2016-09-16T01:09:39.300Z,19.87
2016-09-16T01:10:01.034Z,19.87
2016-09-16T01:10:22.820Z,19.92
2016-09-16T01:10:44.560Z,20.04
2016-09-16T01:11:06.305Z,20.03
2016-09-16T01:11:28.029Z,20.10
2016-09-16T01:11:49.744Z,20.00
2016-09-16T01:12:11.478Z,19.93
2016-09-16T01:12:33.206Z,20.10
2016-09-16T01:12:54.938Z,20.10
2016-09-16T01:13:16.663Z,20.08
2016-09-16T01:13:38.397Z,19.76
2016-09-16T01:14:00.118Z,19.67
2016-09-16T01:14:21.872Z,19.59
2016-09-16T01:14:43.603Z,19.62
2016-09-16T01:15:05.334Z,19.53
2016-09-16T01:15:27.066Z,19.38
2016-09-16T01:15:48.790Z,19.34
2016-09-16T01:16:10.524Z,19.50
2016-09-16T01:16:32.253Z,19.59
2016-09-16T01:16:53.968Z,19.61
2016-09-16T01:17:15.690Z,19.58
2016-09-16T01:17:37.434Z,19.51
2016-09-16T01:17:59.159Z,19.54
2016-09-16T01:18:20.890Z,19.65
2016-09-16T01:18:42.627Z,19.59
2016-09-16T01:19:04.372Z,19.49
2016-09-16T01:19:26.103Z,19.61
2016-09-16T01:19:47.821Z,19.61
2016-09-16T01:20:09.539Z,19.56
2016-09-16T01:20:31.267Z,19.54
2016-09-16T01:20:53.015Z,19.53
2016-09-16T01:21:14.746Z,19.44
2016-09-16T01:21:36.472Z,19.45
2016-09-16T01:21:58.185Z,19.46
2016-09-16T01:22:19.907Z,19.44
2016-09-16T01:22:41.629Z,19.51
2016-09-16T01:23:05.351Z,19.70
2016-09-16T01:23:27.075Z,19.88
2016-09-16T01:23:48.783Z,19.89
2016-09-16T01:24:10.512Z,20.00
2016-09-16T01:24:32.250Z,19.90
2016-09-16T01:24:53.961Z,19.88
2016-09-16T01:25:16.691Z,19.83
2016-09-16T01:25:38.418Z,19.75
2016-09-16T01:26:00.138Z,19.61
2016-09-16T01:26:21.863Z,19.63
2016-09-16T01:26:43.642Z,19.70
2016-09-16T01:27:05.367Z,19.82
2016-09-16T01:27:27.078Z,19.82
2016-09-16T01:27:48.810Z,19.77
2016-09-16T01:28:10.528Z,19.86
2016-09-16T01:28:32.259Z,19.95
2016-09-16T01:28:53.987Z,19.75
2016-09-16T01:29:15.702Z,19.64
2016-09-16T01:29:38.435Z,19.78
2016-09-16T01:30:00.163Z,19.81
2016-09-16T01:30:26.656Z,19.80
2016-09-16T01:30:48.368Z,19.74
2016-09-16T01:31:10.150Z,19.79
2016-09-16T01:31:31.879Z,19.80
2016-09-16T01:31:53.639Z,19.77
2016-09-16T01:32:15.357Z,19.78
2016-09-16T01:32:37.085Z,19.89
2016-09-16T01:32:58.806Z,19.63
2016-09-16T01:33:20.535Z,19.52
2016-09-16T01:33:42.256Z,19.63
2016-09-16T01:34:03.978Z,19.56
2016-09-16T01:34:25.725Z,19.59
2016-09-16T01:34:47.462Z,19.56
2016-09-16T01:35:09.187Z,19.69
2016-09-16T01:35:30.911Z,19.80
2016-09-16T01:35:52.633Z,19.71
2016-09-16T01:36:14.361Z,19.62
2016-09-16T01:36:36.102Z,19.54
2016-09-16T01:36:57.830Z,19.53
2016-09-16T01:37:19.564Z,19.52
2016-09-16T01:37:41.300Z,19.68
2016-09-16T01:38:04.039Z,19.66
2016-09-16T01:38:25.770Z,19.69
2016-09-16T01:38:47.513Z,19.69
2016-09-16T01:39:09.243Z,19.65
2016-09-16T01:39:30.953Z,19.48
2016-09-16T01:39:52.717Z,19.45
2016-09-16T01:40:14.429Z,19.41
2016-09-16T01:40:37.143Z,19.37
2016-09-16T01:40:58.931Z,19.47
2016-09-16T01:41:20.641Z,19.60
2016-09-16T01:41:42.409Z,19.62
2016-09-16T01:42:04.144Z,19.72
2016-09-16T01:42:25.859Z,19.75
2016-09-16T01:42:47.607Z,19.80
2016-09-16T01:43:09.330Z,19.71
2016-09-16T01:43:31.060Z,19.42
2016-09-16T01:43:52.785Z,19.29
2016-09-16T01:44:14.502Z,19.28
2016-09-16T01:44:36.278Z,19.11
2016-09-16T01:44:58.029Z,19.24
2016-09-16T01:45:19.764Z,19.27
2016-09-16T01:45:41.492Z,19.44
2016-09-16T01:46:03.216Z,19.40
2016-09-16T01:46:24.944Z,19.24
2016-09-16T01:46:46.682Z,19.06
2016-09-16T01:47:08.419Z,19.15
2016-09-16T01:47:34.919Z,19.27
2016-09-16T01:47:57.629Z,19.16
2016-09-16T01:48:19.357Z,19.13
2016-09-16T01:48:41.066Z,19.31
2016-09-16T01:49:02.788Z,19.50
2016-09-16T01:49:24.505Z,19.50
2016-09-16T01:49:46.237Z,19.30
2016-09-16T01:50:07.955Z,19.14
2016-09-16T01:50:29.681Z,19.03
2016-09-16T01:50:51.402Z,19.12
2016-09-16T01:51:13.130Z,19.05
2016-09-16T01:51:34.848Z,19.05
2016-09-16T01:51:56.566Z,19.12
2016-09-16T01:52:18.279Z,19.14
2016-09-16T01:52:40.003Z,19.18
2016-09-16T01:53:02.738Z,19.20
2016-09-16T01:53:29.230Z,19.40
2016-09-16T01:53:50.979Z,19.53
2016-09-16T01:54:12.703Z,19.59
2016-09-16T01:54:34.425Z,19.71
2016-09-16T01:54:56.147Z,19.83
2016-09-16T01:55:17.872Z,19.83
2016-09-16T01:55:39.660Z,19.80
2016-09-16T01:56:01.382Z,19.78
2016-09-16T01:56:23.114Z,19.78
2016-09-16T01:56:44.832Z,19.72
2016-09-16T01:57:33.059Z,19.44
2016-09-16T01:57:54.784Z,19.36
2016-09-16T01:58:16.518Z,19.35
2016-09-16T01:58:38.262Z,19.50
2016-09-16T01:58:59.981Z,19.56
2016-09-16T01:59:21.795Z,19.60
2016-09-16T01:59:43.510Z,19.76
2016-09-16T02:00:05.235Z,19.88
2016-09-16T02:00:26.950Z,19.72
2016-09-16T02:00:48.685Z,19.59
2016-09-16T02:01:10.416Z,19.52
2016-09-16T02:01:33.142Z,19.64
2016-09-16T02:01:54.877Z,19.70
2016-09-16T02:02:16.601Z,19.70
2016-09-16T02:02:38.332Z,19.40
2016-09-16T02:03:00.051Z,19.35
2016-09-16T02:03:21.778Z,19.35
2016-09-16T02:03:43.588Z,19.15
2016-09-16T02:04:05.308Z,19.17
2016-09-16T02:04:27.030Z,19.15
2016-09-16T02:04:48.755Z,19.31
2016-09-16T02:05:10.492Z,19.40
2016-09-16T02:05:32.242Z,19.21
2016-09-16T02:05:53.978Z,19.09
2016-09-16T02:06:15.705Z,19.05
2016-09-16T02:06:37.430Z,18.92
2016-09-16T02:06:59.248Z,18.92
2016-09-16T02:07:20.962Z,18.97
2016-09-16T02:07:42.838Z,19.01
2016-09-16T02:08:04.570Z,19.10
2016-09-16T02:08:26.300Z,19.11
2016-09-16T02:08:48.063Z,18.92
2016-09-16T02:09:09.785Z,18.84
2016-09-16T02:09:31.516Z,18.79
2016-09-16T02:09:58.019Z,18.80
2016-09-16T02:10:19.750Z,19.03
2016-09-16T02:10:41.481Z,19.08
2016-09-16T02:11:03.204Z,19.10
2016-09-16T02:11:24.930Z,18.94
2016-09-16T02:11:46.655Z,18.88
2016-09-16T02:12:08.387Z,18.80
2016-09-16T02:12:30.131Z,18.79
2016-09-16T02:12:51.851Z,18.83
2016-09-16T02:13:13.590Z,18.76
2016-09-16T02:13:35.304Z,18.60
2016-09-16T02:13:57.036Z,18.53
2016-09-16T02:14:18.761Z,18.67
2016-09-16T02:14:40.494Z,18.89
2016-09-16T02:15:02.232Z,18.97
2016-09-16T02:15:23.960Z,19.13
2016-09-16T02:15:45.692Z,19.19
2016-09-16T02:16:07.452Z,19.17
2016-09-16T02:16:29.174Z,18.93
2016-09-16T02:16:50.958Z,19.05
2016-09-16T02:17:12.684Z,18.99
2016-09-16T02:17:34.412Z,18.87
2016-09-16T02:17:56.133Z,18.97
2016-09-16T02:18:17.856Z,18.87
2016-09-16T02:18:39.582Z,18.97
2016-09-16T02:19:01.330Z,18.77
2016-09-16T02:19:23.057Z,18.68
2016-09-16T02:19:44.789Z,18.65
2016-09-16T02:20:06.559Z,18.72
2016-09-16T02:20:28.298Z,18.78
2016-09-16T02:20:50.024Z,18.74
2016-09-16T02:21:11.743Z,18.76
2016-09-16T02:21:33.479Z,18.68
2016-09-16T02:21:55.204Z,18.72
2016-09-16T02:22:16.936Z,18.73
2016-09-16T02:22:38.667Z,18.80
2016-09-16T02:23:00.392Z,18.91
2016-09-16T02:23:22.123Z,19.03
2016-09-16T02:23:43.848Z,18.80
2016-09-16T02:24:05.663Z,18.90
2016-09-16T02:24:27.384Z,18.92
2016-09-16T02:24:49.112Z,18.90
2016-09-16T02:25:10.847Z,18.84
2016-09-16T02:25:32.575Z,18.94
2016-09-16T02:25:54.300Z,19.01
2016-09-16T02:26:16.014Z,18.95
2016-09-16T02:26:37.748Z,18.99
2016-09-16T02:26:59.490Z,18.96
2016-09-16T02:27:21.211Z,19.12
2016-09-16T02:27:42.958Z,19.16
2016-09-16T02:28:31.215Z,19.05
2016-09-16T02:28:53.928Z,19.19
2016-09-16T02:29:15.652Z,19.14
2016-09-16T02:29:37.390Z,19.03
2016-09-16T02:29:59.131Z,19.01
2016-09-16T02:30:20.865Z,18.87
2016-09-16T02:30:42.597Z,18.67
2016-09-16T02:31:04.324Z,18.54
2016-09-16T02:31:26.078Z,18.76
2016-09-16T02:31:47.809Z,18.90
2016-09-16T02:32:15.294Z,19.12
2016-09-16T02:32:37.022Z,19.28
2016-09-16T02:32:58.839Z,19.19
2016-09-16T02:33:20.577Z,19.16
2016-09-16T02:33:42.305Z,19.22
2016-09-16T02:34:04.020Z,19.23
2016-09-16T02:34:25.889Z,19.10
2016-09-16T02:34:47.604Z,19.10
2016-09-16T02:35:09.345Z,18.99
2016-09-16T02:35:31.070Z,18.88
2016-09-16T02:35:52.865Z,18.81
2016-09-16T02:36:14.593Z,18.92
2016-09-16T02:36:36.325Z,18.94
2016-09-16T02:36:58.080Z,18.90
2016-09-16T02:37:19.803Z,19.00
2016-09-16T02:37:41.542Z,19.04
2016-09-16T02:38:03.265Z,19.10
2016-09-16T02:38:24.984Z,19.03
2016-09-16T02:38:46.715Z,18.78
2016-09-16T02:39:08.432Z,18.73
2016-09-16T02:39:30.170Z,18.75
2016-09-16T02:39:51.896Z,18.66
2016-09-16T02:40:13.620Z,18.69
2016-09-16T02:40:35.333Z,18.95
2016-09-16T02:40:57.060Z,18.96
2016-09-16T02:41:18.798Z,19.19
2016-09-16T02:41:41.530Z,18.96
2016-09-16T02:42:03.252Z,18.87
2016-09-16T02:42:24.984Z,18.89
2016-09-16T02:42:46.715Z,18.98
2016-09-16T02:43:08.442Z,18.99
2016-09-16T02:43:30.190Z,19.02
2016-09-16T02:43:52.913Z,19.05
2016-09-16T02:44:14.647Z,19.04
2016-09-16T02:44:36.362Z,18.95
2016-09-16T02:44:59.110Z,18.98
2016-09-16T02:45:20.820Z,18.72
2016-09-16T02:45:42.561Z,18.68
2016-09-16T02:46:04.305Z,18.61
2016-09-16T02:46:26.034Z,18.65
2016-09-16T02:46:47.768Z,18.66
2016-09-16T02:47:09.496Z,18.59
2016-09-16T02:47:31.229Z,18.59
2016-09-16T02:47:52.951Z,18.53
2016-09-16T02:48:41.169Z,18.30
2016-09-16T02:49:02.890Z,18.41
2016-09-16T02:49:26.855Z,18.54
2016-09-16T02:49:48.557Z,18.46
2016-09-16T02:50:10.299Z,18.43
2016-09-16T02:50:32.021Z,18.42
2016-09-16T02:50:53.741Z,18.47
2016-09-16T02:51:15.489Z,18.46
2016-09-16T02:51:37.213Z,18.35
2016-09-16T02:51:58.939Z,18.41
2016-09-16T02:52:21.691Z,18.40
2016-09-16T02:52:43.421Z,18.49
2016-09-16T02:53:05.134Z,18.59
2016-09-16T02:53:26.868Z,18.73
2016-09-16T02:53:48.593Z,18.87
2016-09-16T02:54:10.673Z,18.56
2016-09-16T02:54:32.404Z,18.43
2016-09-16T02:54:54.133Z,18.39
2016-09-16T02:55:50.405Z,18.45
2016-09-16T02:56:12.337Z,18.44
2016-09-16T02:56:34.071Z,18.42
2016-09-16T02:56:55.815Z,18.36
2016-09-16T02:57:17.556Z,18.35
2016-09-16T02:57:39.283Z,18.44
2016-09-16T02:58:01.201Z,18.66
2016-09-16T02:58:22.801Z,18.73
2016-09-16T02:58:44.532Z,18.57
2016-09-16T02:59:07.486Z,18.52
2016-09-16T02:59:30.411Z,18.56
2016-09-16T02:59:53.729Z,18.73
2016-09-16T03:00:15.721Z,18.78
2016-09-16T03:00:37.459Z,18.84
2016-09-16T03:00:59.184Z,18.65
2016-09-16T03:01:20.913Z,18.53
2016-09-16T03:01:42.647Z,18.55
2016-09-16T03:02:04.477Z,18.62
2016-09-16T03:02:26.209Z,18.58
2016-09-16T03:02:47.934Z,18.68
2016-09-16T03:03:09.652Z,18.77
2016-09-16T03:03:31.373Z,18.84
2016-09-16T03:03:53.159Z,18.75
2016-09-16T03:04:14.887Z,18.59
2016-09-16T03:04:36.612Z,18.56
2016-09-16T03:04:58.343Z,18.59
2016-09-16T03:05:20.075Z,18.59
2016-09-16T03:06:08.290Z,18.50
2016-09-16T03:06:30.020Z,18.48
2016-09-16T03:06:51.751Z,18.44
2016-09-16T03:07:14.603Z,18.62
2016-09-16T03:07:36.334Z,18.52
2016-09-16T03:07:58.078Z,18.55
2016-09-16T03:08:19.786Z,18.47
2016-09-16T03:08:41.505Z,18.68
2016-09-16T03:09:03.237Z,18.69
2016-09-16T03:09:24.961Z,18.73
2016-09-16T03:09:46.695Z,18.69
2016-09-16T03:10:08.423Z,18.68
2016-09-16T03:10:30.138Z,18.76
2016-09-16T03:10:51.864Z,18.86
2016-09-16T03:11:13.601Z,18.84
2016-09-16T03:11:35.428Z,18.85
2016-09-16T03:11:57.156Z,18.88
2016-09-16T03:12:18.888Z,18.99
2016-09-16T03:12:40.610Z,18.94
2016-09-16T03:13:07.105Z,18.84
2016-09-16T03:13:28.829Z,18.77
2016-09-16T03:13:50.548Z,18.75
2016-09-16T03:14:12.270Z,18.51
2016-09-16T03:14:34.040Z,18.67
2016-09-16T03:14:55.742Z,18.79
2016-09-16T03:15:17.466Z,18.84
2016-09-16T03:15:39.182Z,18.90
2016-09-16T03:16:00.917Z,18.99
2016-09-16T03:16:22.709Z,19.10
2016-09-16T03:16:44.567Z,18.98
2016-09-16T03:17:06.170Z,18.73
2016-09-16T03:17:27.899Z,18.56
2016-09-16T03:17:49.640Z,18.49
2016-09-16T03:18:11.371Z,18.40
2016-09-16T03:18:33.102Z,18.40
2016-09-16T03:18:54.855Z,18.34
2016-09-16T03:19:16.568Z,18.38
2016-09-16T03:19:38.296Z,18.31
2016-09-16T03:20:04.789Z,18.33
2016-09-16T03:20:26.519Z,18.35
2016-09-16T03:20:48.312Z,18.40
2016-09-16T03:21:10.062Z,18.39
2016-09-16T03:21:31.790Z,18.52
2016-09-16T03:21:53.514Z,18.57
2016-09-16T03:22:15.241Z,18.53
2016-09-16T03:22:41.799Z,18.61
2016-09-16T03:23:03.527Z,18.71
2016-09-16T03:23:25.246Z,18.67
2016-09-16T03:23:47.035Z,18.65
2016-09-16T03:24:13.534Z,18.56
2016-09-16T03:24:35.259Z,18.49
2016-09-16T03:24:57.105Z,18.49
2016-09-16T03:25:20.846Z,18.44
2016-09-16T03:25:42.565Z,18.48
2016-09-16T03:26:04.295Z,18.45
2016-09-16T03:26:26.033Z,18.46
2016-09-16T03:26:47.767Z,18.42
2016-09-16T03:27:09.512Z,18.35
2016-09-16T03:27:31.237Z,18.42
2016-09-16T03:27:52.957Z,18.43
2016-09-16T03:28:14.693Z,18.47
2016-09-16T03:28:36.401Z,18.52
2016-09-16T03:28:58.155Z,18.62
2016-09-16T03:29:19.880Z,18.73
2016-09-16T03:29:41.597Z,18.41
2016-09-16T03:30:03.328Z,18.36
2016-09-16T03:30:25.061Z,18.42
2016-09-16T03:30:46.801Z,18.41
2016-09-16T03:31:08.516Z,18.34
2016-09-16T03:31:30.247Z,18.17
2016-09-16T03:31:52.045Z,18.32
2016-09-16T03:32:16.638Z,18.32
2016-09-16T03:32:38.421Z,18.40
2016-09-16T03:33:00.158Z,18.46
2016-09-16T03:33:21.886Z,18.44
2016-09-16T03:33:43.659Z,18.56
2016-09-16T03:34:05.384Z,18.47
2016-09-16T03:34:27.108Z,18.34
2016-09-16T03:34:48.885Z,18.42
2016-09-16T03:35:10.609Z,18.47
2016-09-16T03:35:32.363Z,18.33
2016-09-16T03:35:54.114Z,18.20
2016-09-16T03:36:15.842Z,18.08
2016-09-16T03:36:37.614Z,17.97
2016-09-16T03:37:04.110Z,18.02
2016-09-16T03:37:25.848Z,18.03
2016-09-16T03:37:47.596Z,18.18
2016-09-16T03:38:09.329Z,18.28
2016-09-16T03:38:31.063Z,18.19
2016-09-16T03:38:52.798Z,18.18
2016-09-16T03:39:14.527Z,18.19
2016-09-16T03:39:36.277Z,18.25
2016-09-16T03:39:58.008Z,18.22
2016-09-16T03:40:19.732Z,18.27
2016-09-16T03:40:41.457Z,18.41
2016-09-16T03:41:03.192Z,18.38
2016-09-16T03:41:24.920Z,18.42
2016-09-16T03:41:46.651Z,18.37
2016-09-16T03:42:08.380Z,18.49
2016-09-16T03:42:30.130Z,18.49
2016-09-16T03:42:52.856Z,18.55
2016-09-16T03:43:14.590Z,18.64
2016-09-16T03:43:36.308Z,18.59
2016-09-16T03:43:58.055Z,18.46
2016-09-16T03:44:19.801Z,18.49
2016-09-16T03:44:41.524Z,18.54
2016-09-16T03:45:03.259Z,18.60
2016-09-16T03:45:24.990Z,18.68
2016-09-16T03:45:47.726Z,18.52
2016-09-16T03:46:09.470Z,18.52
2016-09-16T03:46:35.848Z,18.51
2016-09-16T03:46:57.580Z,18.67
2016-09-16T03:47:19.310Z,18.68
2016-09-16T03:47:41.032Z,18.70
2016-09-16T03:48:02.772Z,18.56
2016-09-16T03:48:24.485Z,18.47
2016-09-16T03:48:46.213Z,18.56
2016-09-16T03:49:07.940Z,18.68
2016-09-16T03:49:29.666Z,18.72
2016-09-16T03:49:51.388Z,18.77
2016-09-16T03:50:13.118Z,18.73
2016-09-16T03:50:34.944Z,18.65
2016-09-16T03:50:56.680Z,18.69
2016-09-16T03:51:18.409Z,18.56
2016-09-16T03:51:40.140Z,18.56
2016-09-16T03:52:01.876Z,18.56
2016-09-16T03:52:23.605Z,18.65
2016-09-16T03:52:45.326Z,18.75
2016-09-16T03:53:07.044Z,18.80
2016-09-16T03:53:28.766Z,18.80
2016-09-16T03:53:50.498Z,18.84
2016-09-16T03:54:12.239Z,18.90
2016-09-16T03:54:33.966Z,18.99
2016-09-16T03:55:00.463Z,18.86
2016-09-16T03:55:22.220Z,18.84
2016-09-16T03:55:43.936Z,18.85
2016-09-16T03:56:05.662Z,18.86
2016-09-16T03:56:27.403Z,18.93
2016-09-16T03:56:49.132Z,19.08
2016-09-16T03:57:10.866Z,19.10
2016-09-16T03:57:32.604Z,19.12
2016-09-16T03:57:54.400Z,19.05
2016-09-16T03:58:16.134Z,19.11
2016-09-16T03:58:37.842Z,19.18
2016-09-16T03:58:59.564Z,19.10
2016-09-16T03:59:21.291Z,19.09
2016-09-16T03:59:43.013Z,19.03
2016-09-16T04:00:04.768Z,18.96
2016-09-16T04:00:26.626Z,18.97
2016-09-16T04:00:48.358Z,19.03
2016-09-16T04:01:10.085Z,19.00
2016-09-16T04:01:58.306Z,18.65
2016-09-16T04:02:22.614Z,18.67
2016-09-16T04:02:44.354Z,18.66
2016-09-16T04:03:06.118Z,18.69
2016-09-16T04:03:27.900Z,18.71
2016-09-16T04:03:49.637Z,18.71
2016-09-16T04:04:11.359Z,18.73
2016-09-16T04:04:33.087Z,18.68
2016-09-16T04:04:54.812Z,18.70
2016-09-16T04:05:16.536Z,18.63
2016-09-16T04:05:38.268Z,18.59
2016-09-16T04:05:59.997Z,18.50
2016-09-16T04:06:21.724Z,18.49
2016-09-16T04:06:43.455Z,18.53
2016-09-16T04:07:05.259Z,18.53
2016-09-16T04:07:26.985Z,18.46
2016-09-16T04:07:53.477Z,18.48
2016-09-16T04:08:15.326Z,18.53
2016-09-16T04:08:37.058Z,18.57
2016-09-16T04:08:58.793Z,18.53
2016-09-16T04:09:21.538Z,18.54
2016-09-16T04:09:43.277Z,18.55
2016-09-16T04:10:05.007Z,18.66
2016-09-16T04:10:26.748Z,18.68
2016-09-16T04:10:48.479Z,18.75
2016-09-16T04:11:13.040Z,18.71
2016-09-16T04:11:34.764Z,18.83
2016-09-16T04:11:56.494Z,18.92
2016-09-16T04:12:18.219Z,19.04
2016-09-16T04:12:39.941Z,19.03
2016-09-16T04:13:04.235Z,18.89
2016-09-16T04:13:25.973Z,18.75
2016-09-16T04:13:47.836Z,18.74
2016-09-16T04:14:09.570Z,18.64
2016-09-16T04:14:31.295Z,18.57
2016-09-16T04:14:54.022Z,18.45
2016-09-16T04:15:15.996Z,18.56
2016-09-16T04:15:37.727Z,18.56
2016-09-16T04:15:59.508Z,18.48
2016-09-16T04:16:21.254Z,18.65
2016-09-16T04:16:42.972Z,18.65
2016-09-16T04:17:04.710Z,18.83
2016-09-16T04:17:26.438Z,18.93
2016-09-16T04:17:48.169Z,18.95
2016-09-16T04:18:09.898Z,18.86
2016-09-16T04:18:31.638Z,18.68
2016-09-16T04:18:53.372Z,18.70
2016-09-16T04:19:15.117Z,18.70
2016-09-16T04:19:36.839Z,18.70
2016-09-16T04:19:58.572Z,18.76
2016-09-16T04:20:20.316Z,18.80
2016-09-16T04:20:42.051Z,18.86
2016-09-16T04:21:03.779Z,18.84
2016-09-16T04:21:25.554Z,18.83
2016-09-16T04:21:47.333Z,18.84
2016-09-16T04:22:09.080Z,18.75
2016-09-16T04:22:30.799Z,18.72
2016-09-16T04:22:52.541Z,18.59
2016-09-16T04:23:14.258Z,18.59
2016-09-16T04:23:36.008Z,18.70
2016-09-16T04:23:57.788Z,18.74
2016-09-16T04:24:19.576Z,18.77
2016-09-16T04:24:42.294Z,18.84
2016-09-16T04:25:04.041Z,18.97
2016-09-16T04:25:25.791Z,19.06
2016-09-16T04:25:47.545Z,18.98
2016-09-16T04:26:09.279Z,18.91
2016-09-16T04:26:32.013Z,18.91
2016-09-16T04:26:53.737Z,18.91
2016-09-16T04:27:41.985Z,18.77
2016-09-16T04:28:03.731Z,18.59
2016-09-16T04:28:25.456Z,18.53
2016-09-16T04:28:47.185Z,18.52
2016-09-16T04:29:08.965Z,18.44
2016-09-16T04:29:30.707Z,18.44
2016-09-16T04:29:52.431Z,18.41
2016-09-16T04:30:14.217Z,18.37
2016-09-16T04:30:36.009Z,18.41
2016-09-16T04:30:57.746Z,18.44
2016-09-16T04:31:19.478Z,18.50
2016-09-16T04:31:41.219Z,18.60
2016-09-16T04:32:02.941Z,18.70
2016-09-16T04:32:24.699Z,18.72
2016-09-16T04:32:46.466Z,18.72
2016-09-16T04:33:08.210Z,18.72
2016-09-16T04:33:29.955Z,18.66
2016-09-16T04:33:51.692Z,18.69
2016-09-16T04:34:13.433Z,18.64
2016-09-16T04:34:35.164Z,18.75
2016-09-16T04:34:56.905Z,18.71
2016-09-16T04:35:18.650Z,18.78
2016-09-16T04:35:40.377Z,18.89
2016-09-16T04:36:02.104Z,18.93
2016-09-16T04:36:23.854Z,18.98
2016-09-16T04:36:45.588Z,18.87
2016-09-16T04:37:07.366Z,18.78
2016-09-16T04:37:29.094Z,18.68
2016-09-16T04:37:50.927Z,18.61
2016-09-16T04:38:12.687Z,18.67
2016-09-16T04:38:34.428Z,18.71
2016-09-16T04:38:57.167Z,18.74
2016-09-16T04:39:45.396Z,18.87
2016-09-16T04:40:07.148Z,18.94
2016-09-16T04:40:29.879Z,18.89
2016-09-16T04:40:51.657Z,18.82
2016-09-16T04:41:13.417Z,18.73
2016-09-16T04:41:35.244Z,18.68
2016-09-16T04:41:56.978Z,18.72
2016-09-16T04:42:18.719Z,18.72
2016-09-16T04:42:40.476Z,18.68
2016-09-16T04:43:02.201Z,18.66
2016-09-16T04:43:28.704Z,18.52
2016-09-16T04:43:50.463Z,18.42
2016-09-16T04:44:12.249Z,18.39
2016-09-16T04:44:34.003Z,18.36
2016-09-16T04:44:55.766Z,18.37
2016-09-16T04:45:18.507Z,18.42
2016-09-16T04:45:45.011Z,18.51
2016-09-16T04:46:06.757Z,18.51
2016-09-16T04:46:28.508Z,18.61
2016-09-16T04:46:50.237Z,18.77
2016-09-16T04:47:12.962Z,18.79
2016-09-16T04:47:34.708Z,18.83
2016-09-16T04:47:56.515Z,18.73